Time;durP1;ratioP1;P1;durP2;ratioP2;P2;SDS_P1;SDS_P2;PMS_P1;PMS_P2;Temp;Humidity;BMP_temperature;BMP_pressure;BME280_temperature;BME280_humidity;BME280_pressure;Samples;Min_cycle;Max_cycle;Signal;HPM_P1;HPM_P2
2023/05/17 00:01:12;;;;;;;0.80;0.80;;;15.20;99.90;;;;;;5048589;28;20234;-70
2023/05/17 00:03:39;;;;;;;0.68;0.68;;;15.20;99.90;;;;;;5045602;28;20323;-70
2023/05/17 00:06:06;;;;;;;0.70;0.70;;;15.20;99.90;;;;;;5049193;28;20203;-70
2023/05/17 00:08:33;;;;;;;0.75;0.75;;;15.20;99.90;;;;;;5046870;28;20296;-70
2023/05/17 00:11:00;;;;;;;0.75;0.75;;;15.10;99.90;;;;;;5045767;28;20287;-70
2023/05/17 00:13:27;;;;;;;0.80;0.80;;;15.20;99.90;;;;;;5051261;28;20288;-70
2023/05/17 00:15:55;;;;;;;0.80;0.80;;;15.10;99.90;;;;;;5046287;28;20202;-70
2023/05/17 00:18:22;;;;;;;0.80;0.80;;;15.20;99.90;;;;;;5050330;28;20727;-69
2023/05/17 00:20:49;;;;;;;0.73;0.73;;;15.20;99.90;;;;;;5045723;28;20292;-69
2023/05/17 00:23:16;;;;;;;0.90;0.90;;;15.20;99.90;;;;;;5049706;28;20206;-70
2023/05/17 00:25:43;;;;;;;0.70;0.70;;;15.20;99.90;;;;;;5046306;28;20298;-70
2023/05/17 00:28:10;;;;;;;0.73;0.73;;;15.10;99.90;;;;;;5050564;28;20226;-70
2023/05/17 00:30:37;;;;;;;0.90;0.90;;;15.10;99.90;;;;;;5046600;28;20276;-70
2023/05/17 00:33:05;;;;;;;0.65;0.65;;;15.10;99.90;;;;;;5045504;28;20290;-70
2023/05/17 00:35:32;;;;;;;0.70;0.70;;;15.10;99.90;;;;;;5044478;28;20226;-69
2023/05/17 00:37:59;;;;;;;0.77;0.77;;;15.10;99.90;;;;;;5049296;28;20280;-70
2023/05/17 00:40:26;;;;;;;0.70;0.70;;;15.10;99.90;;;;;;5043453;28;20290;-70
2023/05/17 00:42:53;;;;;;;0.90;0.90;;;15.00;99.90;;;;;;5043600;28;20697;-70
2023/05/17 00:45:20;;;;;;;0.70;0.70;;;14.90;99.90;;;;;;5050888;28;20613;-70
2023/05/17 00:47:47;;;;;;;0.70;0.70;;;15.00;99.90;;;;;;5046738;28;20740;-70
2023/05/17 00:50:15;;;;;;;0.80;0.80;;;15.10;99.90;;;;;;5045021;28;20198;-70
2023/05/17 00:52:42;;;;;;;0.75;0.75;;;15.10;99.90;;;;;;5047525;28;20195;-70
2023/05/17 00:55:09;;;;;;;0.80;0.80;;;15.10;99.90;;;;;;5047719;28;20759;-70
2023/05/17 00:57:36;;;;;;;0.85;0.85;;;15.00;99.90;;;;;;5042779;28;20256;-70
2023/05/17 01:00:04;;;;;;;0.90;0.90;;;15.00;99.90;;;;;;5046200;28;20198;-70
2023/05/17 01:02:30;;;;;;;1.00;1.00;;;15.00;99.90;;;;;;5049630;28;20287;-70
2023/05/17 01:04:58;;;;;;;1.48;0.85;;;15.00;99.90;;;;;;5046236;28;20318;-70
2023/05/17 01:07:26;;;;;;;0.73;0.73;;;14.90;99.90;;;;;;5048596;28;20645;-72
2023/05/17 01:09:53;;;;;;;0.73;0.73;;;14.90;99.90;;;;;;5051424;28;20203;-70
2023/05/17 01:12:32;;;;;;;1.00;0.90;;;15.00;99.90;;;;;;5051915;28;20227;-70
2023/05/17 01:15:14;;;;;;;0.90;0.90;;;15.00;99.90;;;;;;5049253;28;20286;-70
2023/05/17 01:17:50;;;;;;;0.88;0.88;;;14.90;99.90;;;;;;5049029;28;20209;-71
2023/05/17 01:20:22;;;;;;;0.95;0.95;;;14.90;99.90;;;;;;5049366;28;20203;-70
2023/05/17 01:23:09;;;;;;;0.80;0.80;;;14.90;99.90;;;;;;5047880;28;20211;-70
2023/05/17 01:25:47;;;;;;;0.80;0.80;;;14.90;99.90;;;;;;5043383;28;20222;-71
2023/05/17 01:28:17;;;;;;;0.77;0.77;;;14.80;99.90;;;;;;5043465;28;20570;-69
2023/05/17 01:30:46;;;;;;;0.70;0.70;;;14.80;99.90;;;;;;5039599;28;20643;-71
2023/05/17 01:33:15;;;;;;;0.90;0.90;;;14.80;99.90;;;;;;5043161;28;20199;-70
2023/05/17 01:35:41;;;;;;;0.95;0.80;;;14.70;99.90;;;;;;5044235;28;20199;-70
2023/05/17 01:38:09;;;;;;;0.80;0.80;;;14.60;99.90;;;;;;5042326;28;20282;-70
2023/05/17 01:40:39;;;;;;;0.80;0.80;;;14.60;99.90;;;;;;5041829;28;20285;-69
2023/05/17 01:43:22;;;;;;;0.90;0.90;;;14.60;99.90;;;;;;5045270;28;20195;-70
2023/05/17 01:45:57;;;;;;;0.88;0.88;;;14.70;99.90;;;;;;5044069;28;20206;-69
2023/05/17 01:48:28;;;;;;;0.90;0.90;;;14.70;99.90;;;;;;5042059;28;20372;-69
2023/05/17 01:50:58;;;;;;;0.70;0.70;;;14.80;99.90;;;;;;5045307;28;20670;-69
2023/05/17 01:53:30;;;;;;;0.85;0.85;;;14.80;99.90;;;;;;5043183;28;21013;-70
2023/05/17 01:56:01;;;;;;;0.88;0.88;;;14.80;99.90;;;;;;5047186;28;20210;-70
2023/05/17 01:58:30;;;;;;;0.80;0.80;;;14.80;99.90;;;;;;5046145;28;20246;-70
2023/05/17 02:01:01;;;;;;;0.82;0.82;;;14.80;99.90;;;;;;5040067;28;20800;-70
2023/05/17 02:03:29;;;;;;;0.80;0.80;;;14.80;99.90;;;;;;5038911;28;20246;-71
2023/05/17 02:05:56;;;;;;;0.80;0.80;;;14.80;99.90;;;;;;5049609;28;20778;-70
2023/05/17 02:08:23;;;;;;;0.73;0.73;;;14.80;99.90;;;;;;5054797;28;20293;-69
2023/05/17 02:10:50;;;;;;;0.80;0.80;;;14.80;99.90;;;;;;5045434;28;20279;-70
2023/05/17 02:13:17;;;;;;;0.80;0.80;;;14.80;99.90;;;;;;5051445;28;20231;-70
2023/05/17 02:15:44;;;;;;;0.70;0.70;;;14.80;99.90;;;;;;5050358;28;20373;-70
2023/05/17 02:18:12;;;;;;;0.73;0.73;;;14.90;99.90;;;;;;5049646;28;20206;-70
2023/05/17 02:20:40;;;;;;;0.90;0.90;;;14.90;99.90;;;;;;5048602;28;20550;-69
2023/05/17 02:23:07;;;;;;;0.70;0.70;;;14.90;99.90;;;;;;5050598;28;20202;-70
2023/05/17 02:25:33;;;;;;;0.63;0.63;;;14.90;99.90;;;;;;5047090;28;20289;-70
2023/05/17 02:28:01;;;;;;;0.80;0.80;;;14.80;99.90;;;;;;5049503;28;20210;-70
2023/05/17 02:30:28;;;;;;;0.77;0.77;;;14.70;99.90;;;;;;5049058;28;20273;-70
2023/05/17 02:32:55;;;;;;;0.90;0.90;;;14.60;99.90;;;;;;5050359;28;20302;-70
2023/05/17 02:35:23;;;;;;;0.70;0.70;;;14.60;99.90;;;;;;5050427;28;20304;-70
2023/05/17 02:37:50;;;;;;;0.80;0.80;;;14.60;99.90;;;;;;5051056;28;20274;-70
2023/05/17 02:40:18;;;;;;;0.80;0.80;;;14.60;99.90;;;;;;5049219;28;20210;-70
2023/05/17 02:42:44;;;;;;;0.90;0.90;;;14.70;99.90;;;;;;5044657;28;20238;-70
2023/05/17 02:45:12;;;;;;;0.70;0.70;;;14.70;99.90;;;;;;5050970;28;20705;-70
2023/05/17 02:47:38;;;;;;;0.52;0.52;;;14.70;99.90;;;;;;5051543;28;20321;-70
2023/05/17 02:50:06;;;;;;;0.82;0.82;;;14.60;99.90;;;;;;5045870;28;20230;-70
2023/05/17 02:52:34;;;;;;;0.70;0.70;;;14.70;99.90;;;;;;5050689;28;20670;-70
2023/05/17 02:55:01;;;;;;;0.95;0.70;;;14.70;99.90;;;;;;5050576;28;20272;-71
2023/05/17 02:57:28;;;;;;;0.80;0.80;;;14.70;99.90;;;;;;5048422;28;20214;-70
2023/05/17 02:59:55;;;;;;;0.77;0.77;;;14.60;99.90;;;;;;5046710;28;20199;-70
2023/05/17 03:02:22;;;;;;;0.70;0.70;;;14.60;99.90;;;;;;5049710;28;20194;-69
2023/05/17 03:04:49;;;;;;;0.73;0.73;;;14.60;99.90;;;;;;5051892;28;20574;-71
2023/05/17 03:07:16;;;;;;;0.75;0.75;;;14.60;99.90;;;;;;5046167;28;20294;-70
2023/05/17 03:09:44;;;;;;;1.00;1.00;;;14.60;99.90;;;;;;5048648;28;20254;-70
2023/05/17 03:12:11;;;;;;;0.90;0.90;;;14.60;99.90;;;;;;5048149;28;20213;-70
2023/05/17 03:14:38;;;;;;;0.90;0.90;;;14.60;99.90;;;;;;5042663;28;20306;-70
2023/05/17 03:17:05;;;;;;;0.85;0.85;;;14.60;99.90;;;;;;5045735;28;20293;-71
2023/05/17 03:19:32;;;;;;;0.77;0.77;;;14.60;99.90;;;;;;5049442;28;20199;-69
2023/05/17 03:21:59;;;;;;;0.70;0.70;;;14.60;99.90;;;;;;5047402;28;21070;-70
2023/05/17 03:24:26;;;;;;;0.70;0.70;;;14.60;99.90;;;;;;5046128;28;20316;-70
2023/05/17 03:26:54;;;;;;;0.82;0.82;;;14.60;99.90;;;;;;5044449;28;20230;-70
2023/05/17 03:29:21;;;;;;;0.80;0.80;;;14.60;99.90;;;;;;5045653;28;20305;-70
2023/05/17 03:31:48;;;;;;;0.90;0.90;;;14.50;99.90;;;;;;5044422;28;20582;-70
2023/05/17 03:34:15;;;;;;;0.70;0.70;;;14.50;99.90;;;;;;5048076;28;20227;-70
2023/05/17 03:36:42;;;;;;;0.70;0.70;;;14.60;99.90;;;;;;5047707;28;20548;-70
2023/05/17 03:39:09;;;;;;;1.05;0.85;;;14.60;99.90;;;;;;5048661;28;20195;-70
2023/05/17 03:41:36;;;;;;;0.88;0.88;;;14.60;99.90;;;;;;5050602;28;20703;-70
2023/05/17 03:44:05;;;;;;;0.70;0.70;;;14.60;99.90;;;;;;5048713;28;20254;-70
2023/05/17 03:46:32;;;;;;;0.65;0.65;;;14.50;99.90;;;;;;5045062;28;20313;-70
2023/05/17 03:48:59;;;;;;;0.55;0.55;;;14.50;99.90;;;;;;5050248;28;20311;-70
2023/05/17 03:51:26;;;;;;;0.90;0.90;;;14.50;99.90;;;;;;5049726;28;20881;-72
2023/05/17 03:53:59;;;;;;;0.70;0.70;;;14.50;99.90;;;;;;5046672;28;20215;-70
2023/05/17 03:56:26;;;;;;;0.80;0.80;;;14.50;99.90;;;;;;5046629;28;20298;-69
2023/05/17 03:58:52;;;;;;;0.80;0.80;;;14.50;99.90;;;;;;5051622;28;20231;-70
2023/05/17 04:01:21;;;;;;;0.70;0.70;;;14.50;99.90;;;;;;5044054;28;20298;-70
2023/05/17 04:03:48;;;;;;;0.70;0.70;;;14.60;99.90;;;;;;5045860;28;20679;-72
2023/05/17 04:06:15;;;;;;;0.70;0.70;;;14.60;99.90;;;;;;5048713;28;20245;-70
2023/05/17 04:08:42;;;;;;;0.80;0.80;;;14.70;99.90;;;;;;5048583;28;20215;-70
2023/05/17 04:11:12;;;;;;;0.70;0.70;;;14.70;99.90;;;;;;5043720;28;20729;-69
2023/05/17 04:13:40;;;;;;;0.80;0.80;;;14.70;99.90;;;;;;5047604;28;20282;-71
2023/05/17 04:16:08;;;;;;;0.70;0.70;;;14.70;99.90;;;;;;5049565;28;20292;-70
2023/05/17 04:18:38;;;;;;;0.80;0.80;;;14.80;99.90;;;;;;5047351;28;20229;-69
2023/05/17 04:21:05;;;;;;;0.70;0.70;;;14.80;99.90;;;;;;5045775;28;20206;-69
2023/05/17 04:23:34;;;;;;;0.70;0.70;;;14.80;99.90;;;;;;5048632;28;20222;-70
2023/05/17 04:26:01;;;;;;;0.90;0.90;;;14.80;99.90;;;;;;5046131;28;20202;-70
2023/05/17 04:28:28;;;;;;;0.82;0.82;;;14.80;99.90;;;;;;5044805;28;20254;-70
2023/05/17 04:30:56;;;;;;;0.80;0.80;;;14.80;99.90;;;;;;5045253;28;20673;-69
2023/05/17 04:33:23;;;;;;;0.90;0.90;;;14.80;99.90;;;;;;5045914;28;20211;-70
2023/05/17 04:35:55;;;;;;;0.80;0.80;;;14.80;99.90;;;;;;5045684;28;20202;-70
2023/05/17 04:38:23;;;;;;;0.80;0.80;;;14.90;99.90;;;;;;5046573;28;20194;-70
2023/05/17 04:40:50;;;;;;;0.85;0.85;;;14.90;99.90;;;;;;5050388;28;20662;-70
2023/05/17 04:43:17;;;;;;;0.70;0.70;;;14.90;99.90;;;;;;5046241;28;20222;-70
2023/05/17 04:45:44;;;;;;;0.80;0.80;;;14.90;99.90;;;;;;5045113;28;20289;-70
2023/05/17 04:48:11;;;;;;;1.13;1.13;;;15.00;99.90;;;;;;5047319;28;20332;-69
2023/05/17 04:50:38;;;;;;;1.85;1.65;;;15.00;99.90;;;;;;5049591;28;20198;-70
2023/05/17 04:53:07;;;;;;;1.63;1.40;;;15.10;99.90;;;;;;5043451;28;20289;-69
2023/05/17 04:55:34;;;;;;;1.50;1.40;;;15.10;99.90;;;;;;5047255;28;20216;-69
2023/05/17 04:58:01;;;;;;;1.30;1.20;;;15.10;99.90;;;;;;5047030;28;20198;-70
2023/05/17 05:00:28;;;;;;;1.08;1.08;;;15.10;99.90;;;;;;5047962;28;20575;-70
2023/05/17 05:02:55;;;;;;;1.55;1.27;;;15.20;99.90;;;;;;5047662;28;20199;-70
2023/05/17 05:05:23;;;;;;;2.95;2.00;;;15.20;99.90;;;;;;5045629;28;20214;-70
2023/05/17 05:07:50;;;;;;;1.60;1.42;;;15.30;99.90;;;;;;5043012;28;20202;-70
2023/05/17 05:10:19;;;;;;;2.05;1.15;;;15.30;99.90;;;;;;5046670;28;20242;-70
2023/05/17 05:12:46;;;;;;;1.00;1.00;;;15.30;99.90;;;;;;5046677;28;20409;-70
2023/05/17 05:15:13;;;;;;;1.05;0.80;;;15.30;99.90;;;;;;5046006;28;20295;-70
2023/05/17 05:17:40;;;;;;;0.88;0.88;;;15.30;99.90;;;;;;5046583;28;20387;-70
2023/05/17 05:20:09;;;;;;;0.90;0.90;;;15.40;99.90;;;;;;5049249;28;20274;-70
2023/05/17 05:22:36;;;;;;;1.80;1.00;;;15.40;99.90;;;;;;5043163;28;20278;-70
2023/05/17 05:25:03;;;;;;;0.77;0.77;;;15.40;99.90;;;;;;5047214;28;20309;-70
2023/05/17 05:27:34;;;;;;;0.85;0.85;;;15.50;99.90;;;;;;5046246;28;20307;-69
2023/05/17 05:30:01;;;;;;;0.80;0.80;;;15.50;99.90;;;;;;5047902;28;20365;-70
2023/05/17 05:32:28;;;;;;;1.10;1.10;;;15.70;99.90;;;;;;5043312;28;21292;-70
2023/05/17 05:34:55;;;;;;;0.85;0.85;;;15.90;99.90;;;;;;5048092;28;20646;-70
2023/05/17 05:37:22;;;;;;;0.90;0.90;;;16.20;99.90;;;;;;5050284;28;20426;-70
2023/05/17 05:39:49;;;;;;;0.85;0.85;;;16.50;99.90;;;;;;5042022;28;20226;-70
2023/05/17 05:42:16;;;;;;;0.90;0.90;;;16.70;99.90;;;;;;5046488;28;20212;-70
2023/05/17 05:44:45;;;;;;;0.88;0.88;;;16.90;99.90;;;;;;5045571;28;20317;-70
2023/05/17 05:47:12;;;;;;;1.58;1.00;;;17.10;99.90;;;;;;5040847;28;20234;-71
2023/05/17 05:49:38;;;;;;;0.77;0.77;;;17.20;99.90;;;;;;5033433;28;20268;-70
2023/05/17 05:52:05;;;;;;;0.70;0.70;;;17.10;99.90;;;;;;5041466;28;20667;-70
2023/05/17 05:54:32;;;;;;;0.90;0.90;;;17.00;99.90;;;;;;5040730;28;20305;-71
2023/05/17 05:56:59;;;;;;;0.80;0.80;;;16.70;99.90;;;;;;5037335;28;20236;-70
2023/05/17 05:59:27;;;;;;;0.80;0.80;;;16.60;99.90;;;;;;5041100;28;20626;-71
2023/05/17 06:01:56;;;;;;;0.90;0.90;;;16.50;99.90;;;;;;5042349;28;20684;-70
2023/05/17 06:04:23;;;;;;;0.60;0.60;;;16.40;99.90;;;;;;5037099;28;20785;-71
2023/05/17 06:06:50;;;;;;;0.70;0.70;;;16.30;99.90;;;;;;5038535;28;20294;-71
2023/05/17 06:09:17;;;;;;;0.90;0.90;;;16.30;99.90;;;;;;5040439;28;20276;-71
2023/05/17 06:11:44;;;;;;;0.98;0.85;;;16.30;99.90;;;;;;5038839;28;20227;-71
2023/05/17 06:14:11;;;;;;;0.80;0.80;;;16.30;99.90;;;;;;5037550;28;20688;-70
2023/05/17 06:16:38;;;;;;;0.70;0.70;;;16.30;99.90;;;;;;5042075;28;20234;-71
2023/05/17 06:19:06;;;;;;;0.93;0.93;;;16.40;99.90;;;;;;5038704;28;20277;-70
2023/05/17 06:21:33;;;;;;;1.50;1.10;;;16.40;99.90;;;;;;5041197;28;20286;-71
2023/05/17 06:24:01;;;;;;;3.03;1.42;;;16.40;99.90;;;;;;5039162;28;20331;-71
2023/05/17 06:26:28;;;;;;;1.58;1.27;;;16.40;99.90;;;;;;5039082;28;20280;-70
2023/05/17 06:28:55;;;;;;;1.70;1.00;;;16.50;99.90;;;;;;5038274;28;20337;-70
2023/05/17 06:31:21;;;;;;;2.22;1.48;;;16.50;99.90;;;;;;5042109;28;20202;-71
2023/05/17 06:33:48;;;;;;;0.98;0.80;;;16.50;99.90;;;;;;5038942;28;20266;-73
2023/05/17 06:36:17;;;;;;;1.13;0.80;;;16.60;99.90;;;;;;5041037;28;20487;-70
2023/05/17 06:38:44;;;;;;;2.58;1.27;;;16.70;99.90;;;;;;5042710;28;20627;-71
2023/05/17 06:41:10;;;;;;;1.10;1.00;;;16.70;99.90;;;;;;5040311;28;20306;-70
2023/05/17 06:43:37;;;;;;;1.05;1.02;;;16.80;99.90;;;;;;5040807;28;20808;-71
2023/05/17 06:46:04;;;;;;;1.08;0.98;;;16.80;99.90;;;;;;5041365;28;20288;-71
2023/05/17 06:48:31;;;;;;;1.10;1.00;;;16.70;99.90;;;;;;5045680;28;20259;-72
2023/05/17 06:50:58;;;;;;;0.90;0.90;;;16.70;99.90;;;;;;5042107;28;20468;-71
2023/05/17 06:53:27;;;;;;;0.80;0.80;;;16.70;99.90;;;;;;5046704;28;20229;-71
2023/05/17 06:55:54;;;;;;;1.23;0.90;;;16.80;99.90;;;;;;5048298;28;20207;-71
2023/05/17 06:58:20;;;;;;;0.90;0.90;;;16.70;99.90;;;;;;5045830;28;20225;-72
2023/05/17 07:00:47;;;;;;;0.80;0.80;;;16.80;99.90;;;;;;5044633;28;20195;-71
2023/05/17 07:03:14;;;;;;;0.70;0.70;;;16.80;99.90;;;;;;5049153;28;20374;-71
2023/05/17 07:05:41;;;;;;;0.50;0.50;;;17.00;99.90;;;;;;5047279;28;20222;-72
2023/05/17 07:08:08;;;;;;;0.80;0.80;;;17.10;99.90;;;;;;5047435;28;20269;-71
2023/05/17 07:10:36;;;;;;;0.82;0.82;;;17.10;99.90;;;;;;5051597;28;20576;-72
2023/05/17 07:13:03;;;;;;;0.75;0.75;;;17.10;99.90;;;;;;5056755;28;20250;-72
2023/05/17 07:15:30;;;;;;;0.68;0.68;;;17.10;99.90;;;;;;5053638;28;20223;-73
2023/05/17 07:17:58;;;;;;;1.13;0.80;;;16.90;99.90;;;;;;5053303;28;20202;-72
2023/05/17 07:20:25;;;;;;;1.13;0.93;;;17.00;99.90;;;;;;5052108;28;20267;-72
2023/05/17 07:22:52;;;;;;;0.60;0.60;;;17.00;99.90;;;;;;5047027;28;20195;-72
2023/05/17 07:25:20;;;;;;;0.75;0.75;;;17.00;99.90;;;;;;5040982;28;20301;-73
2023/05/17 07:27:48;;;;;;;0.65;0.65;;;17.00;99.90;;;;;;5039971;28;20331;-72
2023/05/17 07:30:15;;;;;;;0.85;0.85;;;17.10;99.90;;;;;;5037376;28;20309;-72
2023/05/17 07:32:42;;;;;;;0.70;0.70;;;17.10;99.90;;;;;;5040074;28;20233;-73
2023/05/17 07:35:09;;;;;;;0.60;0.60;;;17.10;99.90;;;;;;5041105;28;20653;-73
2023/05/17 07:37:36;;;;;;;0.88;0.88;;;17.20;99.90;;;;;;5035516;28;20203;-72
2023/05/17 07:40:04;;;;;;;0.77;0.77;;;17.30;99.90;;;;;;5033176;28;20754;-71
2023/05/17 07:42:33;;;;;;;0.85;0.85;;;17.30;99.90;;;;;;5040319;28;20249;-71
2023/05/17 07:45:01;;;;;;;0.63;0.63;;;17.30;99.90;;;;;;5046224;28;21115;-72
2023/05/17 07:47:28;;;;;;;0.60;0.60;;;17.30;99.90;;;;;;5044843;28;20208;-71
2023/05/17 07:49:55;;;;;;;0.80;0.80;;;17.40;99.90;;;;;;5040006;28;20222;-72
2023/05/17 07:52:22;;;;;;;0.75;0.75;;;17.40;99.90;;;;;;5040265;28;20227;-72
2023/05/17 07:54:49;;;;;;;0.75;0.75;;;17.40;99.90;;;;;;5044201;28;20615;-72
2023/05/17 07:57:16;;;;;;;0.88;0.88;;;17.40;99.90;;;;;;5051363;28;20234;-72
2023/05/17 07:59:43;;;;;;;0.80;0.80;;;17.50;99.90;;;;;;5047966;28;20259;-71
2023/05/17 08:02:11;;;;;;;0.75;0.75;;;17.50;99.90;;;;;;5041634;28;20913;-72
2023/05/17 08:04:38;;;;;;;0.80;0.80;;;17.60;99.90;;;;;;5039967;28;20246;-71
2023/05/17 08:07:05;;;;;;;0.50;0.50;;;17.60;99.90;;;;;;5043542;28;20282;-72
2023/05/17 08:09:32;;;;;;;1.83;0.70;;;17.60;99.90;;;;;;5041602;28;20322;-72
2023/05/17 08:12:00;;;;;;;0.90;0.90;;;17.60;99.90;;;;;;5039576;28;20307;-72
2023/05/17 08:14:27;;;;;;;0.80;0.80;;;17.60;99.90;;;;;;5044610;28;20504;-71
2023/05/17 08:16:54;;;;;;;0.80;0.77;;;17.70;99.90;;;;;;5042553;28;20195;-71
2023/05/17 08:19:23;;;;;;;0.60;0.60;;;17.80;99.90;;;;;;5044052;28;20199;-72
2023/05/17 08:21:50;;;;;;;0.75;0.70;;;17.80;99.90;;;;;;5043683;28;20199;-72
2023/05/17 08:24:17;;;;;;;0.50;0.50;;;17.80;99.90;;;;;;5042849;28;20250;-72
2023/05/17 08:26:44;;;;;;;0.63;0.63;;;17.90;99.90;;;;;;5049126;28;20204;-72
2023/05/17 08:29:11;;;;;;;0.80;0.80;;;17.90;99.90;;;;;;5041416;28;20654;-72
2023/05/17 08:31:38;;;;;;;0.90;0.90;;;18.00;99.90;;;;;;5043593;28;20289;-72
2023/05/17 08:34:05;;;;;;;2.25;1.58;;;18.00;99.90;;;;;;5043612;28;20210;-71
2023/05/17 08:36:34;;;;;;;0.90;0.90;;;18.10;99.90;;;;;;5044709;28;20293;-71
2023/05/17 08:39:01;;;;;;;1.08;1.08;;;18.00;99.90;;;;;;5037314;28;20207;-71
2023/05/17 08:41:28;;;;;;;1.20;1.10;;;18.00;99.90;;;;;;5044588;28;20444;-72
2023/05/17 08:43:55;;;;;;;0.70;0.70;;;18.00;99.90;;;;;;5040613;28;20873;-72
2023/05/17 08:46:23;;;;;;;0.90;0.90;;;18.10;99.90;;;;;;5041950;28;20210;-72
2023/05/17 08:48:54;;;;;;;0.77;0.77;;;18.20;99.90;;;;;;5047022;28;20281;-72
2023/05/17 08:51:22;;;;;;;1.45;1.10;;;18.30;99.90;;;;;;5043045;28;20881;-72
2023/05/17 08:53:51;;;;;;;2.40;1.27;;;18.30;99.90;;;;;;5041968;28;20811;-73
2023/05/17 08:56:20;;;;;;;3.30;1.08;;;18.40;99.90;;;;;;5043108;28;20288;-72
2023/05/17 08:58:50;;;;;;;1.05;0.80;;;18.40;99.90;;;;;;5045211;28;20209;-73
2023/05/17 09:01:17;;;;;;;0.63;0.63;;;18.40;99.90;;;;;;5042711;28;20869;-72
2023/05/17 09:03:48;;;;;;;1.00;0.80;;;18.50;99.90;;;;;;5041079;28;20226;-73
2023/05/17 09:06:17;;;;;;;0.60;0.60;;;18.60;99.90;;;;;;5044009;28;20331;-72
2023/05/17 09:08:44;;;;;;;0.90;0.90;;;18.60;99.90;;;;;;5040546;28;20295;-72
2023/05/17 09:11:13;;;;;;;0.82;0.82;;;18.70;99.90;;;;;;5044895;28;20280;-73
2023/05/17 09:13:40;;;;;;;1.38;1.27;;;18.70;99.90;;;;;;5042626;28;20249;-73
2023/05/17 09:16:14;;;;;;;1.33;1.23;;;18.80;99.90;;;;;;5042683;28;20294;-73
2023/05/17 09:18:41;;;;;;;1.02;0.93;;;18.90;99.90;;;;;;5043017;28;20696;-72
2023/05/17 09:21:09;;;;;;;1.05;0.90;;;18.90;99.90;;;;;;5044933;28;20239;-73
2023/05/17 09:23:38;;;;;;;0.98;0.90;;;19.00;99.90;;;;;;5039640;28;20221;-73
2023/05/17 09:26:06;;;;;;;0.60;0.60;;;19.10;99.90;;;;;;5044617;28;20222;-73
2023/05/17 09:28:40;;;;;;;0.70;0.70;;;19.10;99.90;;;;;;5043478;28;20237;-73
2023/05/17 09:31:08;;;;;;;0.88;0.80;;;19.20;99.90;;;;;;5040757;28;20802;-72
2023/05/17 09:33:42;;;;;;;0.77;0.70;;;19.30;99.90;;;;;;5036361;28;20306;-72
2023/05/17 09:36:17;;;;;;;0.68;0.68;;;19.40;99.90;;;;;;5045907;28;20219;-73
2023/05/17 09:38:44;;;;;;;0.93;0.75;;;19.40;99.90;;;;;;5040208;28;20201;-73
2023/05/17 09:41:11;;;;;;;0.63;0.63;;;19.50;99.90;;;;;;5039339;28;20478;-73
2023/05/17 09:43:39;;;;;;;0.95;0.80;;;19.60;99.90;;;;;;5046309;28;20226;-73
2023/05/17 09:46:06;;;;;;;1.00;0.80;;;19.70;99.90;;;;;;5043746;28;20287;-73
2023/05/17 09:48:33;;;;;;;0.65;0.65;;;19.70;99.90;;;;;;5039465;28;20743;-73
2023/05/17 09:51:02;;;;;;;0.65;0.65;;;19.70;99.90;;;;;;5042160;28;20241;-74
2023/05/17 09:53:30;;;;;;;0.65;0.65;;;19.70;99.90;;;;;;5044582;28;20672;-74
2023/05/17 09:55:58;;;;;;;0.80;0.80;;;19.80;99.90;;;;;;5040187;28;20207;-73
2023/05/17 09:58:26;;;;;;;0.70;0.70;;;19.90;99.90;;;;;;5039025;28;20214;-74
2023/05/17 10:00:58;;;;;;;0.93;0.60;;;20.00;99.90;;;;;;5040411;28;20670;-73
2023/05/17 10:03:29;;;;;;;0.65;0.65;;;20.30;99.90;;;;;;5044772;28;20744;-73
2023/05/17 10:05:58;;;;;;;0.70;0.68;;;20.60;99.90;;;;;;5039984;28;20226;-73
2023/05/17 10:08:26;;;;;;;1.00;0.80;;;20.70;99.90;;;;;;5038444;28;20242;-73
2023/05/17 10:10:56;;;;;;;1.48;0.85;;;20.80;99.90;;;;;;5042627;28;20218;-73
2023/05/17 10:13:27;;;;;;;1.17;1.10;;;20.90;99.90;;;;;;5043685;28;20212;-73
2023/05/17 10:15:55;;;;;;;0.68;0.68;;;21.00;99.90;;;;;;5046221;28;20226;-73
2023/05/17 10:18:24;;;;;;;1.85;0.60;;;21.20;99.90;;;;;;5047666;28;20199;-73
2023/05/17 10:20:53;;;;;;;0.55;0.55;;;21.30;99.90;;;;;;5039284;28;20256;-73
2023/05/17 10:23:21;;;;;;;3.08;0.70;;;21.40;99.90;;;;;;5044040;28;20242;-73
2023/05/17 10:25:49;;;;;;;1.20;0.55;;;21.40;99.90;;;;;;5047416;28;20206;-74
2023/05/17 10:28:17;;;;;;;1.50;0.60;;;21.40;99.90;;;;;;5048939;28;20210;-73
2023/05/17 10:30:45;;;;;;;0.60;0.60;;;21.40;99.90;;;;;;5042659;28;20574;-74
2023/05/17 10:33:17;;;;;;;0.50;0.50;;;21.30;99.90;;;;;;5051874;28;20316;-74
2023/05/17 10:35:45;;;;;;;1.45;0.50;;;21.50;99.90;;;;;;5053136;28;20529;-74
2023/05/17 10:38:13;;;;;;;0.40;0.40;;;21.60;99.90;;;;;;5046611;28;20229;-73
2023/05/17 10:40:41;;;;;;;0.60;0.60;;;21.60;99.90;;;;;;5047919;28;20199;-73
2023/05/17 10:43:10;;;;;;;0.80;0.65;;;21.60;99.90;;;;;;5045621;28;20805;-73
2023/05/17 10:45:37;;;;;;;0.50;0.50;;;21.70;99.90;;;;;;5046853;28;20233;-73
2023/05/17 10:48:06;;;;;;;1.75;0.65;;;21.80;99.90;;;;;;5047687;28;20207;-73
2023/05/17 10:50:38;;;;;;;1.63;0.73;;;21.60;99.90;;;;;;5047826;28;20215;-73
2023/05/17 10:53:09;;;;;;;0.60;0.60;;;21.50;99.90;;;;;;5043865;28;20212;-73
2023/05/17 10:55:39;;;;;;;1.08;0.60;;;21.50;99.90;;;;;;5045755;28;20191;-73
2023/05/17 10:58:17;;;;;;;0.77;0.70;;;21.70;99.90;;;;;;5044836;28;20570;-74
2023/05/17 11:00:46;;;;;;;0.70;0.60;;;22.00;99.90;;;;;;5044144;28;20198;-73
2023/05/17 11:03:16;;;;;;;0.50;0.50;;;22.10;99.90;;;;;;5048355;28;20514;-73
2023/05/17 11:06:05;;;;;;;0.68;0.68;;;22.20;99.90;;;;;;5045734;28;20201;-73
2023/05/17 11:08:33;;;;;;;0.63;0.63;;;22.20;99.90;;;;;;5050329;28;20195;-74
2023/05/17 11:11:11;;;;;;;0.50;0.50;;;21.70;99.90;;;;;;5047949;28;20211;-73
2023/05/17 11:13:45;;;;;;;0.50;0.50;;;21.60;99.90;;;;;;5049847;28;20228;-73
2023/05/17 11:16:16;;;;;;;0.60;0.50;;;21.60;99.90;;;;;;5045847;28;20198;-75
2023/05/17 11:18:47;;;;;;;0.50;0.50;;;21.50;99.90;;;;;;5050596;28;20270;-73
2023/05/17 11:21:16;;;;;;;0.50;0.50;;;21.30;99.90;;;;;;5048964;28;20223;-74
2023/05/17 11:23:44;;;;;;;0.50;0.50;;;21.30;99.90;;;;;;5049408;28;20233;-75
2023/05/17 11:26:21;;;;;;;0.50;0.50;;;21.30;99.90;;;;;;5054191;28;20219;-74
2023/05/17 11:28:48;;;;;;;0.60;0.60;;;21.30;99.90;;;;;;5054643;28;20206;-73
2023/05/17 11:31:15;;;;;;;0.73;0.70;;;21.00;99.90;;;;;;5052528;28;20222;-74
2023/05/17 11:33:43;;;;;;;0.43;0.43;;;21.00;99.90;;;;;;5050117;28;20250;-74
2023/05/17 11:36:21;;;;;;;0.57;0.57;;;20.80;99.90;;;;;;5042547;28;20747;-74
2023/05/17 11:39:09;;;;;;;3.97;0.52;;;20.70;99.90;;;;;;5042902;28;20214;-74
2023/05/17 11:41:40;;;;;;;0.55;0.55;;;20.80;99.90;;;;;;5043779;28;20199;-74
2023/05/17 11:44:08;;;;;;;0.50;0.50;;;20.70;99.90;;;;;;5038239;28;20254;-72
2023/05/17 11:46:37;;;;;;;0.80;0.60;;;20.60;99.90;;;;;;5033656;28;20704;-72
2023/05/17 11:49:07;;;;;;;1.27;0.50;;;20.50;99.90;;;;;;5039399;28;20293;-73
2023/05/17 11:51:35;;;;;;;0.40;0.40;;;20.40;99.90;;;;;;5040355;28;20302;-72
2023/05/17 11:54:05;;;;;;;0.60;0.60;;;20.40;99.90;;;;;;5043143;28;20300;-73
2023/05/17 11:56:35;;;;;;;0.60;0.60;;;20.50;99.90;;;;;;5045417;28;20635;-73
2023/05/17 11:59:02;;;;;;;1.23;0.50;;;20.40;99.90;;;;;;5043563;28;20259;-72
2023/05/17 12:01:42;;;;;;;0.60;0.60;;;20.50;99.90;;;;;;5036904;28;20290;-73
2023/05/17 12:04:09;;;;;;;1.20;0.60;;;20.40;99.90;;;;;;5044811;28;20355;-74
2023/05/17 12:06:37;;;;;;;1.25;0.52;;;20.30;99.90;;;;;;5041870;28;20218;-72
2023/05/17 12:09:09;;;;;;;0.60;0.60;;;20.30;99.90;;;;;;5042778;28;20736;-73
2023/05/17 12:11:38;;;;;;;0.80;0.80;;;20.30;99.90;;;;;;5042834;28;20245;-72
2023/05/17 12:14:05;;;;;;;1.65;0.60;;;20.50;99.90;;;;;;5040934;28;20502;-72
2023/05/17 12:16:34;;;;;;;0.55;0.55;;;20.40;99.90;;;;;;5041294;28;20260;-73
2023/05/17 12:19:01;;;;;;;0.60;0.60;;;20.30;99.90;;;;;;5046536;28;20206;-73
2023/05/17 12:21:28;;;;;;;0.57;0.57;;;20.20;99.90;;;;;;5038267;28;20272;-73
2023/05/17 12:23:56;;;;;;;1.10;0.60;;;20.00;99.90;;;;;;5039761;28;20313;-74
2023/05/17 12:26:24;;;;;;;0.82;0.65;;;20.00;99.90;;;;;;5041516;28;20302;-73
2023/05/17 12:28:56;;;;;;;0.65;0.65;;;20.10;99.90;;;;;;5042662;28;20282;-73
2023/05/17 12:31:27;;;;;;;0.60;0.60;;;20.10;99.90;;;;;;5036251;28;20284;-73
2023/05/17 12:33:55;;;;;;;1.30;0.60;;;20.10;99.90;;;;;;5043755;28;20255;-74
2023/05/17 12:36:22;;;;;;;0.50;0.50;;;20.10;99.90;;;;;;5041276;28;20642;-74
2023/05/17 12:38:49;;;;;;;0.70;0.60;;;20.10;99.90;;;;;;5043986;28;20344;-74
2023/05/17 12:41:18;;;;;;;0.65;0.65;;;20.00;99.90;;;;;;5043223;28;20257;-74
2023/05/17 12:43:46;;;;;;;0.60;0.60;;;20.00;99.90;;;;;;5040612;28;20452;-74
2023/05/17 12:46:16;;;;;;;0.90;0.70;;;20.00;99.90;;;;;;5039180;28;20846;-73
2023/05/17 12:48:43;;;;;;;0.60;0.60;;;20.00;99.90;;;;;;5040437;28;21010;-73
2023/05/17 12:51:12;;;;;;;1.90;0.82;;;20.00;99.90;;;;;;5035362;28;20277;-74
2023/05/17 12:53:40;;;;;;;0.70;0.70;;;20.00;99.90;;;;;;5041791;28;20233;-73